createdAt,value
2024-05-09T00:02:41.425Z,7.28
2024-05-09T00:07:43.663Z,8.90
2024-05-09T00:12:45.522Z,8.13
2024-05-09T00:17:47.665Z,8.07
2024-05-09T00:22:49.962Z,8.77
2024-05-09T00:27:52.891Z,7.22
2024-05-09T00:32:55.011Z,7.97
2024-05-09T00:37:57.161Z,9.55
2024-05-09T00:42:59.258Z,7.85
2024-05-09T00:48:07.488Z,7.35
2024-05-09T00:53:12.719Z,7.70
2024-05-09T00:58:18.273Z,8.05
2024-05-09T01:03:20.633Z,7.82
2024-05-09T01:08:24.366Z,8.23
2024-05-09T01:13:26.530Z,8.02
2024-05-09T01:18:28.824Z,7.80
2024-05-09T01:23:30.833Z,8.10
2024-05-09T01:28:33.247Z,7.72
2024-05-09T01:33:35.234Z,8.00
2024-05-09T01:38:37.231Z,8.07
2024-05-09T01:43:39.148Z,8.73
2024-05-09T01:48:41.745Z,8.15
2024-05-09T01:53:44.631Z,8.10
2024-05-09T01:58:46.570Z,8.00
2024-05-09T02:03:48.546Z,8.02
2024-05-09T02:08:51.761Z,7.88
2024-05-09T02:13:54.058Z,7.65
2024-05-09T02:18:55.947Z,8.77
2024-05-09T02:23:58.109Z,8.50
2024-05-09T02:29:01.799Z,9.55
2024-05-09T02:34:03.972Z,9.18
2024-05-09T02:39:06.578Z,7.03
2024-05-09T02:44:08.512Z,7.63
2024-05-09T02:49:10.627Z,7.40
2024-05-09T02:54:12.735Z,12.30
2024-05-09T02:59:15.043Z,11.88
2024-05-09T03:04:16.908Z,13.30
2024-05-09T03:09:19.088Z,10.52
2024-05-09T03:14:20.996Z,12.20
2024-05-09T03:19:23.025Z,11.25
2024-05-09T03:24:25.556Z,13.57
2024-05-09T03:29:27.717Z,10.80
2024-05-09T03:34:29.846Z,11.18
2024-05-09T03:39:33.102Z,10.25
2024-05-09T03:44:35.316Z,10.52
2024-05-09T03:49:37.296Z,10.20
2024-05-09T03:54:46.726Z,10.77
2024-05-09T03:59:48.551Z,10.82
2024-05-09T04:04:51.741Z,9.75
2024-05-09T04:09:54.053Z,10.38
2024-05-09T04:14:56.555Z,9.05
2024-05-09T04:19:58.480Z,10.32
2024-05-09T04:25:00.751Z,9.43
2024-05-09T04:30:03.743Z,8.90
2024-05-09T04:35:06.881Z,10.30
2024-05-09T04:40:17.154Z,9.43
2024-05-09T04:45:25.510Z,13.63
2024-05-09T04:50:36.042Z,10.57
2024-05-09T04:55:40.951Z,11.68
2024-05-09T05:00:43.240Z,10.82
2024-05-09T05:05:46.260Z,12.23
2024-05-09T05:10:49.745Z,9.82
2024-05-09T05:15:58.506Z,8.15
2024-05-09T05:21:01.713Z,8.20
2024-05-09T05:26:04.423Z,10.63
2024-05-09T05:31:06.640Z,9.02
2024-05-09T05:36:09.627Z,9.02
2024-05-09T05:41:11.494Z,9.15
2024-05-09T05:46:13.446Z,9.98
2024-05-09T05:51:15.920Z,10.07
2024-05-09T05:56:17.986Z,9.95
2024-05-09T06:01:19.923Z,10.50
2024-05-09T06:06:21.872Z,10.15
2024-05-09T06:11:24.459Z,9.10
2024-05-09T06:16:26.283Z,9.32
2024-05-09T06:21:28.851Z,9.95
2024-05-09T06:26:31.652Z,9.27
2024-05-09T06:31:33.578Z,9.88
2024-05-09T06:36:35.516Z,9.95
2024-05-09T06:41:38.760Z,8.75
2024-05-09T06:46:42.061Z,8.55
2024-05-09T06:51:44.479Z,7.22
2024-05-09T06:56:46.480Z,6.75
2024-05-09T07:01:48.781Z,6.88
2024-05-09T07:06:51.956Z,5.93
2024-05-09T07:11:53.962Z,5.50
2024-05-09T07:16:57.173Z,5.40
2024-05-09T07:21:59.896Z,4.82
2024-05-09T07:27:02.194Z,5.35
2024-05-09T07:32:04.361Z,4.32
2024-05-09T07:37:12.551Z,4.22
2024-05-09T07:42:14.461Z,4.50
2024-05-09T07:48:29.058Z,4.57
2024-05-09T07:53:34.218Z,4.10
2024-05-09T08:03:07.247Z,4.43
2024-05-09T08:08:09.323Z,4.35
2024-05-09T08:13:12.344Z,4.50
2024-05-09T08:18:17.894Z,4.00
2024-05-09T08:23:26.715Z,4.57
2024-05-09T08:28:28.804Z,4.50
2024-05-09T08:33:33.593Z,4.10
2024-05-09T08:38:35.685Z,2.95
2024-05-09T08:43:41.507Z,3.75
2024-05-09T08:48:46.809Z,18.30
2024-05-09T08:53:48.846Z,2.97
2024-05-09T08:58:56.221Z,3.00
2024-05-09T09:04:05.306Z,2.65
2024-05-09T09:09:08.918Z,3.20
2024-05-09T09:14:10.745Z,2.70
2024-05-09T09:19:15.137Z,3.80
2024-05-09T09:24:17.277Z,3.05
2024-05-09T09:29:20.755Z,2.85
2024-05-09T09:34:27.875Z,2.53
2024-05-09T09:39:35.134Z,2.83
2024-05-09T09:44:42.045Z,2.38
2024-05-09T09:49:46.610Z,2.08
2024-05-09T09:54:49.971Z,2.42
2024-05-09T09:59:54.595Z,2.35
2024-05-09T10:04:56.857Z,2.53
2024-05-09T10:09:59.308Z,2.45
2024-05-09T10:15:10.589Z,1.95
2024-05-09T10:20:21.321Z,3.50
2024-05-09T10:25:26.841Z,1.98
2024-05-09T10:30:34.253Z,1.70
2024-05-09T10:35:38.918Z,2.03
2024-05-09T10:40:42.617Z,1.80
2024-05-09T10:45:44.658Z,2.00
2024-05-09T10:50:47.053Z,1.70
2024-05-09T10:55:58.705Z,1.63
2024-05-09T11:01:06.222Z,1.85
2024-05-09T11:06:11.604Z,1.63
2024-05-09T11:11:13.822Z,1.88
2024-05-09T11:16:22.969Z,1.77
2024-05-09T11:21:25.208Z,1.83
2024-05-09T11:26:29.832Z,2.15
2024-05-09T11:31:33.192Z,1.60
2024-05-09T11:36:35.550Z,1.85
2024-05-09T11:41:37.970Z,1.63
2024-05-09T11:46:40.573Z,1.90
2024-05-09T11:51:43.303Z,2.30
2024-05-09T11:56:45.289Z,1.83
2024-05-09T12:01:48.555Z,2.20
2024-05-09T12:06:50.825Z,2.25
2024-05-09T12:11:52.679Z,2.00
2024-05-09T12:16:54.668Z,1.80
2024-05-09T12:21:56.763Z,1.60
2024-05-09T12:27:00.204Z,2.08
2024-05-09T12:32:02.141Z,2.15
2024-05-09T12:37:05.744Z,4.70
2024-05-09T12:42:08.275Z,2.13
2024-05-09T12:47:11.110Z,2.30
2024-05-09T12:52:13.078Z,1.52
2024-05-09T12:57:15.402Z,1.40
2024-05-09T13:02:17.803Z,2.22
2024-05-09T13:07:19.920Z,1.85
2024-05-09T13:12:24.364Z,1.42
2024-05-09T13:17:27.319Z,2.20
2024-05-09T13:22:31.006Z,1.63
2024-05-09T13:27:33.847Z,1.80
2024-05-09T13:32:35.758Z,2.03
2024-05-09T13:37:37.722Z,1.83
2024-05-09T13:42:39.718Z,1.67
2024-05-09T13:47:43.116Z,1.65
2024-05-09T13:52:46.552Z,1.67
2024-05-09T13:57:48.525Z,1.70
2024-05-09T14:02:50.480Z,2.08
2024-05-09T14:07:52.453Z,2.00
2024-05-09T14:12:54.400Z,1.85
2024-05-09T14:17:56.390Z,1.92
2024-05-09T14:22:58.577Z,1.70
2024-05-09T14:28:00.665Z,1.80
2024-05-09T14:33:27.366Z,2.10
2024-05-09T14:38:29.270Z,2.35
2024-05-09T14:43:34.801Z,1.45
2024-05-09T14:48:37.386Z,1.70
2024-05-09T14:53:39.252Z,1.83
2024-05-09T14:58:41.123Z,2.03
2024-05-09T15:03:43.064Z,2.05
2024-05-09T15:08:53.862Z,1.50
2024-05-09T15:19:00.652Z,2.20
2024-05-09T15:24:03.283Z,1.67
2024-05-09T15:29:05.378Z,2.03
2024-05-09T15:34:08.739Z,1.98
2024-05-09T15:39:10.687Z,2.30
2024-05-09T15:44:12.923Z,2.53
2024-05-09T15:49:15.983Z,1.85
2024-05-09T15:54:17.938Z,1.70
2024-05-09T15:59:20.726Z,1.80
2024-05-09T16:04:22.703Z,1.80
2024-05-09T16:09:25.040Z,2.00
2024-05-09T16:14:28.212Z,2.08
2024-05-09T16:19:30.493Z,2.25
2024-05-09T16:24:33.787Z,2.05
2024-05-09T16:29:36.401Z,1.58
2024-05-09T16:34:38.446Z,2.15
2024-05-09T16:39:42.880Z,1.98
2024-05-09T16:44:44.793Z,2.35
2024-05-09T16:49:46.646Z,2.10
2024-05-09T16:54:48.582Z,1.98
2024-05-09T16:59:50.499Z,1.98
2024-05-09T17:04:52.546Z,1.75
2024-05-09T17:09:54.497Z,2.13
2024-05-09T17:14:56.413Z,1.98
2024-05-09T17:19:58.306Z,1.95
2024-05-09T17:25:00.213Z,1.90
2024-05-09T17:30:03.483Z,1.92
2024-05-09T17:35:07.078Z,1.90
2024-05-09T17:40:16.697Z,1.50
2024-05-09T17:45:20.610Z,2.07
2024-05-09T17:50:30.223Z,1.92
2024-05-09T17:55:36.676Z,2.20
2024-05-09T18:00:41.523Z,1.80
2024-05-09T18:05:45.345Z,3.75
2024-05-09T18:10:47.456Z,4.28
2024-05-09T18:15:50.736Z,2.30
2024-05-09T18:20:52.675Z,1.50
2024-05-09T18:25:56.443Z,2.22
2024-05-09T18:30:58.395Z,6.47
2024-05-09T18:36:00.918Z,2.17
2024-05-09T18:41:03.300Z,1.92
2024-05-09T18:46:05.426Z,2.20
2024-05-09T18:51:08.349Z,2.05
2024-05-09T18:56:10.577Z,1.98
2024-05-09T19:01:12.529Z,2.03
2024-05-09T19:06:14.818Z,2.28
2024-05-09T19:11:16.800Z,7.22
2024-05-09T19:16:18.796Z,14.10
2024-05-09T19:21:20.873Z,5.70
2024-05-09T19:26:23.709Z,7.50
2024-05-09T19:31:25.733Z,2.40
2024-05-09T19:36:28.330Z,2.72
2024-05-09T19:41:30.139Z,2.60
2024-05-09T19:46:33.408Z,3.08
2024-05-09T19:51:35.454Z,2.42
2024-05-09T19:56:44.473Z,2.75
2024-05-09T20:01:46.414Z,2.28
2024-05-09T20:06:48.595Z,2.33
2024-05-09T20:11:50.519Z,2.53
2024-05-09T20:16:53.069Z,4.28
2024-05-09T20:21:54.917Z,2.78
2024-05-09T20:26:56.848Z,2.78
2024-05-09T20:31:58.755Z,2.30
2024-05-09T20:37:00.660Z,2.70
2024-05-09T20:42:03.417Z,2.33
2024-05-09T20:47:05.230Z,2.30
2024-05-09T20:52:07.196Z,2.65
2024-05-09T20:57:12.323Z,2.75
2024-05-09T21:02:15.700Z,2.08
2024-05-09T21:07:18.350Z,4.68
2024-05-09T21:12:20.168Z,2.70
2024-05-09T21:17:24.133Z,2.53
2024-05-09T21:22:27.907Z,2.72
2024-05-09T21:27:31.086Z,2.58
2024-05-09T21:32:34.057Z,2.58
2024-05-09T21:37:37.257Z,2.13
2024-05-09T21:42:39.131Z,2.58
2024-05-09T21:47:42.889Z,3.00
2024-05-09T21:52:44.779Z,3.42
2024-05-09T21:57:47.151Z,4.07
2024-05-09T22:02:52.138Z,4.28
2024-05-09T22:07:54.179Z,4.22
2024-05-09T22:12:56.887Z,3.90
2024-05-09T22:17:58.919Z,3.15
2024-05-09T22:23:01.456Z,2.88
2024-05-09T22:28:03.854Z,3.08
2024-05-09T22:33:07.794Z,3.90
2024-05-09T22:38:10.149Z,4.30
2024-05-09T22:43:12.914Z,15.57
2024-05-09T22:48:16.521Z,4.90
2024-05-09T22:53:18.476Z,3.28
2024-05-09T22:58:20.920Z,6.25
2024-05-09T23:03:24.148Z,3.90
2024-05-09T23:08:27.110Z,4.03
2024-05-09T23:13:29.332Z,3.25
2024-05-09T23:18:31.283Z,3.38
2024-05-09T23:23:33.422Z,3.15
2024-05-09T23:28:35.682Z,4.72
2024-05-09T23:33:37.699Z,4.55
2024-05-09T23:38:41.197Z,3.38
2024-05-09T23:43:42.988Z,4.13
2024-05-09T23:48:44.936Z,4.43
2024-05-09T23:53:47.618Z,3.58
2024-05-09T23:58:49.634Z,4.00
